Time;durP1;ratioP1;P1;durP2;ratioP2;P2;SDS_P1;SDS_P2;PMS_P1;PMS_P2;Temp;Humidity;BMP_temperature;BMP_pressure;BME280_temperature;BME280_humidity;BME280_pressure;Samples;Min_cycle;Max_cycle;Signal;HPM_P1;HPM_P2
2021/06/02 00:00:07;;;;;;;6.03;3.70;;;16.10;99.90;;;;;;5055394;28;20192;-77
2021/06/02 00:02:34;;;;;;;10.30;4.50;;;15.90;99.90;;;;;;5055228;28;20184;-76
2021/06/02 00:05:03;;;;;;;6.70;3.90;;;15.90;99.90;;;;;;5054742;28;20619;-77
2021/06/02 00:07:32;;;;;;;5.70;4.53;;;15.90;99.90;;;;;;5055210;28;20239;-76
2021/06/02 00:09:59;;;;;;;6.03;4.20;;;15.90;99.90;;;;;;5055411;28;20215;-77
2021/06/02 00:12:26;;;;;;;10.23;4.50;;;15.80;99.90;;;;;;5054883;28;20660;-76
2021/06/02 00:14:52;;;;;;;9.60;4.40;;;15.80;99.90;;;;;;5054791;28;20224;-78
2021/06/02 00:17:19;;;;;;;14.30;4.13;;;15.60;99.90;;;;;;5055032;28;20311;-76
2021/06/02 00:19:46;;;;;;;13.80;4.23;;;15.60;99.90;;;;;;5054794;28;20287;-76
2021/06/02 00:22:12;;;;;;;7.53;4.40;;;15.50;99.90;;;;;;5054941;28;20203;-76
2021/06/02 00:24:40;;;;;;;11.13;4.03;;;15.40;99.90;;;;;;5054633;28;20204;-77
2021/06/02 00:27:11;;;;;;;9.93;4.27;;;15.40;99.90;;;;;;5054423;28;20196;-79
2021/06/02 00:29:39;;;;;;;7.67;4.07;;;15.40;99.90;;;;;;5054655;28;20193;-76
2021/06/02 00:32:07;;;;;;;6.87;3.57;;;15.30;99.90;;;;;;5054329;28;20196;-76
2021/06/02 00:34:34;;;;;;;5.33;3.77;;;15.30;99.90;;;;;;5054382;28;20283;-76
2021/06/02 00:37:02;;;;;;;5.33;3.70;;;15.30;99.90;;;;;;5054575;28;20251;-76
2021/06/02 00:39:30;;;;;;;6.47;3.73;;;15.20;99.90;;;;;;5054180;28;20207;-77
2021/06/02 00:41:58;;;;;;;5.20;3.73;;;15.20;99.90;;;;;;5054498;28;20191;-76
2021/06/02 00:44:25;;;;;;;6.17;3.50;;;15.10;99.90;;;;;;5054668;28;20199;-76
2021/06/02 00:46:52;;;;;;;7.03;3.70;;;15.00;99.90;;;;;;5054241;28;20681;-77
2021/06/02 00:49:23;;;;;;;8.30;3.90;;;15.10;99.90;;;;;;5054359;28;20196;-77
2021/06/02 00:51:50;;;;;;;6.23;3.50;;;15.10;99.90;;;;;;5054153;28;20196;-76
2021/06/02 00:54:17;;;;;;;4.87;3.40;;;15.10;99.90;;;;;;5054550;28;20220;-77
2021/06/02 00:56:51;;;;;;;4.13;3.40;;;15.00;99.90;;;;;;5054018;28;20645;-78
2021/06/02 00:59:20;;;;;;;6.47;3.60;;;15.00;99.90;;;;;;5054237;28;20212;-76
2021/06/02 01:01:48;;;;;;;4.90;3.40;;;15.00;99.90;;;;;;5054207;28;20212;-76
2021/06/02 01:04:15;;;;;;;5.27;3.23;;;14.90;99.90;;;;;;5054242;28;20195;-76
2021/06/02 01:06:45;;;;;;;8.30;3.60;;;14.90;99.90;;;;;;5053918;28;20291;-76
2021/06/02 01:09:12;;;;;;;5.17;3.90;;;14.90;99.90;;;;;;5053956;28;20196;-78
2021/06/02 01:11:40;;;;;;;7.77;3.20;;;14.90;99.90;;;;;;5052855;28;20283;-78
2021/06/02 01:14:06;;;;;;;7.43;3.80;;;15.00;99.90;;;;;;5054001;28;20275;-77
2021/06/02 01:16:36;;;;;;;8.47;3.47;;;14.80;99.90;;;;;;5054003;28;20220;-76
2021/06/02 01:19:04;;;;;;;6.90;3.80;;;14.80;99.90;;;;;;5053685;28;20283;-76
2021/06/02 01:21:32;;;;;;;4.60;3.63;;;14.80;99.90;;;;;;5053295;28;20223;-78
2021/06/02 01:24:00;;;;;;;5.67;3.93;;;14.80;99.90;;;;;;5053565;28;20242;-77
2021/06/02 01:26:28;;;;;;;6.00;3.83;;;14.80;99.90;;;;;;5053481;28;20206;-78
2021/06/02 01:28:55;;;;;;;4.80;3.67;;;14.80;99.90;;;;;;5053765;28;20243;-76
2021/06/02 01:31:40;;;;;;;9.00;4.07;;;14.80;99.90;;;;;;5052856;28;20283;-76
2021/06/02 01:34:17;;;;;;;4.73;3.23;;;14.70;99.90;;;;;;5052844;28;20200;-76
2021/06/02 01:37:05;;;;;;;7.43;4.23;;;14.70;99.90;;;;;;5052955;28;20742;-76
2021/06/02 01:39:53;;;;;;;9.27;4.10;;;14.80;99.90;;;;;;5053357;28;20665;-76
2021/06/02 01:42:35;;;;;;;9.37;4.00;;;14.90;99.90;;;;;;5053312;28;20224;-76
2021/06/02 01:45:27;;;;;;;7.17;4.30;;;14.90;99.90;;;;;;5052677;28;20286;-76
2021/06/02 01:48:36;;;;;;;12.77;4.10;;;14.80;99.90;;;;;;5053559;28;20271;-76
2021/06/02 01:51:34;;;;;;;5.13;3.77;;;14.80;99.90;;;;;;5053249;28;20290;-76
2021/06/02 01:54:52;;;;;;;6.40;4.20;;;14.80;99.90;;;;;;5053341;28;20199;-79
2021/06/02 01:57:40;;;;;;;5.53;4.23;;;14.90;99.90;;;;;;5053134;28;20258;-76
2021/06/02 02:00:26;;;;;;;5.07;3.87;;;14.90;99.90;;;;;;5053292;28;20223;-77
2021/06/02 02:03:25;;;;;;;7.07;4.30;;;14.90;99.90;;;;;;5053104;28;20269;-78
2021/06/02 02:06:06;;;;;;;6.70;3.70;;;14.90;99.90;;;;;;5052987;28;20291;-75
2021/06/02 02:08:44;;;;;;;9.70;4.40;;;14.90;99.90;;;;;;5053215;28;20275;-78
2021/06/02 02:11:27;;;;;;;11.43;4.50;;;14.80;99.90;;;;;;5052987;28;20283;-77
2021/06/02 02:14:22;;;;;;;7.80;4.17;;;14.90;99.90;;;;;;5052724;28;20207;-79
2021/06/02 02:17:02;;;;;;;6.37;4.40;;;14.80;99.90;;;;;;5053204;28;20220;-78
2021/06/02 02:19:50;;;;;;;6.37;4.07;;;14.70;99.90;;;;;;5052886;28;20231;-78
2021/06/02 02:22:28;;;;;;;7.20;4.40;;;14.70;99.90;;;;;;5052884;28;20719;-76
2021/06/02 02:25:01;;;;;;;7.10;4.47;;;14.70;99.90;;;;;;5053142;28;20196;-79
2021/06/02 02:27:34;;;;;;;4.70;4.20;;;14.70;99.90;;;;;;5052785;28;20206;-76
2021/06/02 02:30:06;;;;;;;6.23;4.33;;;14.60;99.90;;;;;;5053015;28;20207;-77
2021/06/02 02:32:53;;;;;;;5.63;4.63;;;14.50;99.90;;;;;;5052852;28;20279;-76
2021/06/02 02:35:31;;;;;;;7.03;4.57;;;14.40;99.90;;;;;;5053096;28;20195;-76
2021/06/02 02:38:05;;;;;;;5.77;4.40;;;14.40;99.90;;;;;;5053006;28;20215;-76
2021/06/02 02:40:44;;;;;;;8.40;4.80;;;14.40;99.90;;;;;;5052619;28;20261;-78
2021/06/02 02:43:14;;;;;;;9.53;4.63;;;14.30;99.90;;;;;;5052406;28;20188;-76
2021/06/02 02:45:50;;;;;;;8.67;4.77;;;14.30;99.90;;;;;;5052291;28;20224;-77
2021/06/02 02:48:25;;;;;;;9.20;5.07;;;14.20;99.90;;;;;;5053024;28;20251;-80
2021/06/02 02:51:04;;;;;;;8.90;5.00;;;14.20;99.90;;;;;;5052717;28;20200;-76
2021/06/02 02:53:37;;;;;;;10.00;5.23;;;14.20;99.90;;;;;;5052452;28;20208;-76
2021/06/02 02:56:12;;;;;;;6.87;4.93;;;14.10;99.90;;;;;;5054196;28;20319;-76
2021/06/02 02:58:46;;;;;;;10.37;5.17;;;14.10;99.90;;;;;;5056533;28;20341;-76
2021/06/02 03:01:21;;;;;;;6.40;5.10;;;14.10;99.90;;;;;;5056200;28;20642;-76
2021/06/02 03:03:55;;;;;;;7.97;4.70;;;14.10;99.90;;;;;;5056324;28;20191;-76
2021/06/02 03:06:26;;;;;;;6.63;5.20;;;14.00;99.90;;;;;;5056138;28;20211;-77
2021/06/02 03:09:00;;;;;;;6.40;5.10;;;14.00;99.90;;;;;;5056371;28;20241;-77
2021/06/02 03:11:34;;;;;;;9.30;5.23;;;13.90;99.90;;;;;;5055671;28;20283;-76
2021/06/02 03:14:08;;;;;;;10.70;5.93;;;13.80;99.90;;;;;;5056120;28;20196;-76
2021/06/02 03:16:41;;;;;;;6.03;5.13;;;13.90;99.90;;;;;;5055807;28;20219;-77
2021/06/02 03:19:10;;;;;;;9.80;5.30;;;13.90;99.90;;;;;;5056099;28;20200;-77
2021/06/02 03:22:02;;;;;;;8.90;5.43;;;13.90;99.90;;;;;;5056388;28;20290;-76
2021/06/02 03:24:54;;;;;;;10.43;5.77;;;13.90;99.90;;;;;;5055840;28;20199;-76
2021/06/02 03:27:28;;;;;;;11.80;5.80;;;13.90;99.90;;;;;;5055762;28;20211;-77
2021/06/02 03:30:05;;;;;;;6.77;5.30;;;13.90;99.90;;;;;;5055400;28;20231;-76
2021/06/02 03:32:53;;;;;;;6.13;4.90;;;13.80;99.90;;;;;;5055666;28;20654;-76
2021/06/02 03:35:23;;;;;;;7.10;5.77;;;13.90;99.90;;;;;;5055823;28;20199;-78
2021/06/02 03:38:01;;;;;;;10.00;5.50;;;13.90;99.90;;;;;;5055778;28;20227;-77
2021/06/02 03:40:37;;;;;;;8.30;5.63;;;13.90;99.90;;;;;;5055284;28;20629;-76
2021/06/02 03:43:12;;;;;;;11.23;5.10;;;13.80;99.90;;;;;;5055680;28;20238;-78
2021/06/02 03:45:53;;;;;;;8.43;5.60;;;13.90;99.90;;;;;;5055388;28;20290;-76
2021/06/02 03:48:31;;;;;;;9.13;5.87;;;13.90;99.90;;;;;;5055439;28;20198;-77
2021/06/02 03:51:10;;;;;;;9.67;5.30;;;14.00;99.90;;;;;;5055543;28;20272;-76
2021/06/02 03:53:52;;;;;;;9.63;5.83;;;14.00;99.90;;;;;;5055453;28;20188;-77
2021/06/02 03:56:36;;;;;;;11.97;6.00;;;14.10;99.90;;;;;;5055359;28;20220;-76
2021/06/02 03:59:17;;;;;;;10.00;5.93;;;14.00;99.90;;;;;;5055564;28;20200;-78
2021/06/02 04:01:51;;;;;;;10.80;6.03;;;14.00;99.90;;;;;;5055251;28;20277;-78
2021/06/02 04:04:28;;;;;;;10.80;6.03;;;14.10;99.90;;;;;;5055280;28;20192;-76
2021/06/02 04:07:02;;;;;;;8.97;5.83;;;14.10;99.90;;;;;;5054485;28;20291;-76
2021/06/02 04:09:32;;;;;;;9.03;6.30;;;14.10;99.90;;;;;;5054840;28;20269;-75
2021/06/02 04:12:11;;;;;;;8.23;6.13;;;14.30;99.90;;;;;;5042602;28;20283;-76
2021/06/02 04:14:39;;;;;;;6.80;5.83;;;14.40;99.90;;;;;;5035049;28;20231;-78
2021/06/02 04:17:07;;;;;;;14.13;6.17;;;14.60;99.90;;;;;;5034707;28;20319;-77
2021/06/02 04:19:35;;;;;;;15.70;7.07;;;14.70;99.90;;;;;;5034627;28;20643;-76
2021/06/02 04:22:05;;;;;;;8.17;5.77;;;14.80;99.90;;;;;;5034703;28;20193;-76
2021/06/02 04:24:33;;;;;;;8.03;5.70;;;14.90;99.90;;;;;;5034787;28;20196;-77
2021/06/02 04:27:00;;;;;;;9.27;5.80;;;15.10;99.90;;;;;;5034535;28;20233;-79
2021/06/02 04:29:27;;;;;;;10.33;6.17;;;15.50;99.90;;;;;;5038929;28;20639;-76
2021/06/02 04:31:56;;;;;;;10.33;5.80;;;16.20;99.90;;;;;;5053814;28;20279;-78
2021/06/02 04:34:24;;;;;;;11.50;6.50;;;17.20;99.90;;;;;;5054348;28;20697;-76
2021/06/02 04:36:53;;;;;;;10.17;6.00;;;18.20;99.90;;;;;;5054243;28;20438;-76
2021/06/02 04:39:22;;;;;;;10.67;6.27;;;19.40;99.90;;;;;;5054104;28;20709;-76
2021/06/02 04:41:48;;;;;;;9.40;6.47;;;20.40;99.90;;;;;;5054394;28;20188;-77
2021/06/02 04:44:16;;;;;;;12.23;6.63;;;21.40;99.90;;;;;;5054337;28;20196;-77
2021/06/02 04:46:46;;;;;;;9.90;6.83;;;22.40;99.90;;;;;;5054506;28;20197;-78
2021/06/02 04:49:14;;;;;;;10.85;6.03;;;23.20;99.90;;;;;;5053833;28;20192;-76
2021/06/02 04:52:12;;;;;;;8.70;6.13;;;23.90;99.90;;;;;;5054028;28;20188;-76
2021/06/02 04:55:05;;;;;;;7.45;6.28;;;24.50;99.90;;;;;;5051815;28;20642;-77
2021/06/02 04:58:01;;;;;;;8.18;6.03;;;25.00;99.90;;;;;;5053853;28;20224;-77
2021/06/02 05:01:05;;;;;;;9.18;6.35;;;25.50;99.90;;;;;;5053734;28;20643;-77
2021/06/02 05:04:18;;;;;;;9.25;6.13;;;26.10;99.90;;;;;;5053957;28;20763;-78
2021/06/02 05:07:26;;;;;;;8.40;7.47;;;25.80;99.90;;;;;;5053945;28;20195;-76
2021/06/02 05:10:26;;;;;;;12.50;7.13;;;25.30;99.90;;;;;;5047039;28;20643;-77
2021/06/02 05:13:43;;;;;;;14.73;7.80;;;24.10;99.90;;;;;;5053844;28;20229;-77
2021/06/02 05:16:46;;;;;;;11.63;7.70;;;22.60;99.90;;;;;;5028339;28;20185;-76
2021/06/02 05:20:04;;;;;;;13.60;8.00;;;21.20;99.90;;;;;;5051220;28;20196;-76
2021/06/02 05:23:09;;;;;;;15.83;8.07;;;20.30;99.90;;;;;;4990414;28;20202;-77
2021/06/02 05:26:27;;;;;;;13.33;6.90;;;20.70;99.90;;;;;;4967077;28;20200;-76
2021/06/02 05:29:31;;;;;;;11.57;7.13;;;22.20;99.90;;;;;;5052256;28;20682;-78
2021/06/02 05:32:42;;;;;;;11.38;7.57;;;23.90;99.90;;;;;;5035303;28;20243;-76
2021/06/02 05:35:42;;;;;;;9.88;7.40;;;25.20;99.90;;;;;;5040692;28;20275;-76
2021/06/02 05:38:48;;;;;;;11.02;6.93;;;26.40;99.90;;;;;;5050784;28;20254;-77
2021/06/02 05:41:40;;;;;;;13.73;7.25;;;27.10;99.90;;;;;;5052769;28;20222;-76
2021/06/02 05:44:40;;;;;;;13.23;6.68;;;26.00;99.90;;;;;;5053122;28;20617;-78
2021/06/02 05:47:33;;;;;;;16.42;7.35;;;24.90;99.90;;;;;;5053420;28;20275;-76
2021/06/02 05:50:43;;;;;;;10.40;7.03;;;24.80;99.90;;;;;;5052631;28;20200;-78
2021/06/02 05:53:49;;;;;;;15.00;7.00;;;25.50;99.90;;;;;;5050501;28;20198;-77
2021/06/02 05:56:46;;;;;;;10.13;6.78;;;26.50;99.90;;;;;;5051637;28;20212;-76
2021/06/02 05:59:48;;;;;;;13.77;6.00;;;27.50;99.90;;;;;;5032821;28;20220;-78
2021/06/02 06:02:47;;;;;;;10.15;6.07;;;28.00;99.90;;;;;;5014783;28;20282;-76
2021/06/02 06:05:30;;;;;;;13.43;6.65;;;28.60;99.90;;;;;;5051963;28;20275;-77
2021/06/02 06:08:50;;;;;;;10.27;6.07;;;29.20;99.90;;;;;;5051748;28;20191;-77
2021/06/02 06:12:01;;;;;;;5.93;5.35;;;29.70;99.90;;;;;;5052463;28;20265;-73
2021/06/02 06:14:55;;;;;;;6.05;5.20;;;30.60;99.90;;;;;;4990417;28;20288;-74
2021/06/02 06:17:40;;;;;;;9.95;5.43;;;31.30;99.90;;;;;;5048026;28;20231;-75
2021/06/02 06:20:40;;;;;;;8.43;5.00;;;31.40;99.90;;;;;;5052546;28;20188;-75
2021/06/02 06:23:24;;;;;;;10.27;5.30;;;31.20;99.90;;;;;;5051639;28;20275;-75
2021/06/02 06:25:57;;;;;;;11.32;5.18;;;31.20;99.90;;;;;;5052642;28;20195;-77
2021/06/02 06:28:30;;;;;;;6.90;4.97;;;31.40;99.90;;;;;;5052113;28;20198;-75
2021/06/02 06:30:58;;;;;;;7.32;4.68;;;31.90;99.90;;;;;;5054634;28;20185;-75
2021/06/02 06:33:28;;;;;;;12.00;5.78;;;32.50;99.90;;;;;;5055048;28;20726;-77
2021/06/02 06:35:55;;;;;;;11.05;5.63;;;33.10;99.90;;;;;;5054605;28;20267;-75
2021/06/02 06:38:35;;;;;;;11.10;5.13;;;33.70;99.90;;;;;;5055630;28;20285;-75
2021/06/02 06:41:04;;;;;;;13.38;5.45;;;33.30;99.90;;;;;;5056282;28;20715;-75
2021/06/02 06:43:32;;;;;;;8.30;5.03;;;33.60;99.90;;;;;;5056033;28;20283;-77
2021/06/02 06:46:00;;;;;;;11.52;4.85;;;33.70;99.90;;;;;;5055889;28;20256;-75
2021/06/02 06:48:28;;;;;;;13.50;4.90;;;34.20;99.90;;;;;;5055994;28;20196;-77
2021/06/02 06:50:57;;;;;;;7.47;4.75;;;34.20;99.90;;;;;;5056293;28;20653;-76
2021/06/02 06:53:26;;;;;;;8.13;4.75;;;33.90;99.90;;;;;;5055969;28;20283;-75
2021/06/02 06:55:54;;;;;;;7.63;4.75;;;34.30;99.90;;;;;;5056201;28;20224;-75
2021/06/02 06:58:23;;;;;;;11.27;5.03;;;34.40;99.90;;;;;;5055842;28;20694;-76
2021/06/02 07:00:50;;;;;;;13.85;4.95;;;34.30;99.90;;;;;;5055818;28;20748;-75
2021/06/02 07:03:17;;;;;;;8.25;4.38;;;33.30;99.90;;;;;;5056174;28;20391;-75
2021/06/02 07:05:44;;;;;;;5.93;4.32;;;33.90;99.90;;;;;;5056000;28;20198;-75
2021/06/02 07:08:11;;;;;;;12.35;4.30;;;33.40;99.90;;;;;;5055140;28;20279;-77
2021/06/02 07:10:38;;;;;;;6.72;4.30;;;34.20;99.90;;;;;;5055619;28;20715;-75
2021/06/02 07:13:07;;;;;;;7.80;4.22;;;34.80;99.90;;;;;;5053030;28;20242;-74
2021/06/02 07:15:35;;;;;;;4.82;3.92;;;34.60;99.90;;;;;;5055049;28;20731;-75
2021/06/02 07:18:02;;;;;;;4.95;3.97;;;34.60;99.90;;;;;;5054040;28;20227;-75
2021/06/02 07:20:31;;;;;;;14.93;4.05;;;34.10;99.90;;;;;;5054301;28;20219;-76
2021/06/02 07:22:57;;;;;;;8.50;4.38;;;34.30;99.90;;;;;;5053973;28;20202;-75
2021/06/02 07:25:26;;;;;;;10.40;4.00;;;34.20;99.90;;;;;;5056112;28;20617;-77
2021/06/02 07:27:54;;;;;;;4.40;3.90;;;34.10;99.90;;;;;;5056308;28;20260;-76
2021/06/02 07:30:23;;;;;;;9.80;4.07;;;33.60;99.90;;;;;;5054919;28;20545;-77
2021/06/02 07:32:51;;;;;;;9.27;3.75;;;33.70;99.90;;;;;;5055606;28;20195;-75
2021/06/02 07:35:17;;;;;;;7.43;3.75;;;33.90;99.90;;;;;;5055614;28;20228;-77
2021/06/02 07:37:44;;;;;;;10.88;4.13;;;33.30;99.90;;;;;;5055658;28;20262;-77
2021/06/02 07:40:11;;;;;;;10.98;4.28;;;33.40;99.90;;;;;;5049182;28;20217;-76
2021/06/02 07:42:37;;;;;;;5.65;3.85;;;33.50;99.90;;;;;;5053105;28;20290;-76
2021/06/02 07:45:06;;;;;;;8.13;3.58;;;33.30;99.90;;;;;;5057532;28;20200;-77
2021/06/02 07:47:32;;;;;;;5.55;3.33;;;32.80;99.90;;;;;;5056297;28;20211;-76
2021/06/02 07:50:00;;;;;;;7.38;4.00;;;33.20;99.90;;;;;;5055109;28;20290;-75
2021/06/02 07:52:27;;;;;;;6.65;3.75;;;32.80;99.90;;;;;;5055558;28;20200;-76
2021/06/02 07:54:54;;;;;;;6.85;3.70;;;32.40;99.90;;;;;;5058508;28;20219;-76
2021/06/02 07:57:21;;;;;;;6.18;3.60;;;32.30;99.90;;;;;;5057942;28;20227;-76
2021/06/02 07:59:47;;;;;;;5.57;3.60;;;32.50;99.90;;;;;;5058091;28;20279;-75
2021/06/02 08:02:13;;;;;;;4.40;3.85;;;32.90;99.90;;;;;;5061852;28;20191;-76
2021/06/02 08:04:40;;;;;;;5.78;3.40;;;32.60;99.90;;;;;;5056705;28;20383;-75
2021/06/02 08:07:08;;;;;;;12.38;4.07;;;32.20;99.90;;;;;;5055542;28;20219;-76
2021/06/02 08:09:34;;;;;;;8.73;3.75;;;32.90;99.90;;;;;;5055020;28;20188;-76
2021/06/02 08:12:01;;;;;;;16.30;4.03;;;33.40;99.90;;;;;;5056338;28;20232;-78
2021/06/02 08:14:27;;;;;;;6.75;3.65;;;32.40;99.90;;;;;;5057426;28;20250;-78
2021/06/02 08:16:54;;;;;;;12.65;3.65;;;32.90;99.90;;;;;;5056092;28;20240;-76
2021/06/02 08:19:20;;;;;;;10.40;4.20;;;32.80;99.90;;;;;;5056083;28;20251;-75
2021/06/02 08:21:50;;;;;;;12.80;4.38;;;32.90;99.90;;;;;;5057410;28;20275;-78
2021/06/02 08:24:17;;;;;;;7.55;4.50;;;33.60;99.90;;;;;;5056983;28;20279;-76
2021/06/02 08:26:46;;;;;;;7.13;4.22;;;34.00;99.90;;;;;;5057033;28;20261;-76
2021/06/02 08:29:13;;;;;;;13.05;4.57;;;33.70;99.90;;;;;;5055996;28;20199;-76
2021/06/02 08:31:39;;;;;;;12.90;4.57;;;32.50;99.90;;;;;;5055942;28;20200;-76
2021/06/02 08:34:06;;;;;;;8.82;4.03;;;33.00;99.90;;;;;;5055962;28;20283;-77
2021/06/02 08:36:33;;;;;;;12.65;4.40;;;32.50;99.90;;;;;;5055708;28;20196;-76
2021/06/02 08:38:59;;;;;;;16.13;4.85;;;33.00;99.90;;;;;;5056174;28;20827;-76
2021/06/02 08:41:27;;;;;;;12.45;4.13;;;33.50;99.90;;;;;;5055679;28;20228;-76
2021/06/02 08:43:53;;;;;;;15.52;4.10;;;33.60;99.90;;;;;;5055640;28;20203;-76
2021/06/02 08:46:20;;;;;;;9.80;4.10;;;34.10;99.90;;;;;;5055340;28;20192;-76
2021/06/02 08:48:48;;;;;;;11.38;3.65;;;34.50;99.90;;;;;;5055539;28;20192;-78
2021/06/02 08:51:15;;;;;;;5.93;3.60;;;35.30;99.90;;;;;;5055390;28;20196;-76
2021/06/02 08:53:42;;;;;;;5.45;3.70;;;35.60;99.90;;;;;;5055197;28;20227;-77
2021/06/02 08:56:09;;;;;;;9.38;3.35;;;35.40;99.80;;;;;;5054871;28;20283;-77
2021/06/02 08:58:37;;;;;;;18.55;4.22;;;36.00;99.60;;;;;;5055049;28;20306;-75
2021/06/02 09:01:03;;;;;;;15.18;4.15;;;35.40;98.20;;;;;;5054908;28;20196;-76
2021/06/02 09:03:31;;;;;;;14.43;3.92;;;34.70;98.30;;;;;;5051891;28;20244;-77
2021/06/02 09:05:57;;;;;;;6.55;3.47;;;34.50;99.90;;;;;;5044610;28;20211;-77
2021/06/02 09:08:27;;;;;;;12.15;3.75;;;34.50;99.50;;;;;;5054149;28;20203;-78
2021/06/02 09:10:54;;;;;;;7.95;3.85;;;33.40;99.90;;;;;;5053221;28;20271;-77
2021/06/02 09:13:23;;;;;;;12.35;4.00;;;32.90;99.60;;;;;;5052780;28;20196;-77
2021/06/02 09:15:52;;;;;;;10.10;3.75;;;34.00;99.90;;;;;;5055367;28;20234;-76
2021/06/02 09:18:19;;;;;;;5.32;3.40;;;34.50;98.20;;;;;;5053785;28;20712;-75
2021/06/02 09:20:48;;;;;;;6.65;3.40;;;33.90;97.70;;;;;;5053154;28;20291;-77
2021/06/02 09:23:32;;;;;;;5.80;3.17;;;34.30;98.00;;;;;;5054347;28;20196;-76
2021/06/02 09:26:11;;;;;;;5.22;3.15;;;34.20;97.20;;;;;;5053907;28;20276;-76
2021/06/02 09:28:57;;;;;;;5.70;2.90;;;33.30;98.50;;;;;;5054013;28;20249;-76
2021/06/02 09:31:31;;;;;;;8.10;2.60;;;33.70;96.90;;;;;;5053938;28;20192;-76
2021/06/02 09:33:59;;;;;;;4.75;2.72;;;33.70;96.50;;;;;;5053553;28;20722;-77
2021/06/02 09:36:28;;;;;;;6.60;2.97;;;34.10;97.00;;;;;;5053610;28;20291;-76
2021/06/02 09:38:58;;;;;;;5.65;2.60;;;34.20;96.90;;;;;;5053824;28;20219;-76
2021/06/02 09:41:24;;;;;;;4.93;2.60;;;34.90;98.10;;;;;;5052199;28;20235;-78
2021/06/02 09:43:51;;;;;;;3.80;2.60;;;34.40;96.40;;;;;;5052284;28;20228;-76
2021/06/02 09:46:17;;;;;;;5.88;2.53;;;34.10;96.00;;;;;;5050627;28;20374;-78
2021/06/02 09:49:00;;;;;;;4.35;2.80;;;34.00;95.60;;;;;;5052760;28;20192;-76
2021/06/02 09:51:35;;;;;;;5.88;2.47;;;33.30;95.60;;;;;;5051550;28;20224;-76
2021/06/02 09:54:03;;;;;;;2.80;2.38;;;32.40;95.90;;;;;;5052041;28;20278;-78
2021/06/02 09:56:39;;;;;;;5.05;2.85;;;33.20;96.70;;;;;;5052891;28;20287;-76
2021/06/02 09:59:08;;;;;;;4.00;2.92;;;34.40;96.80;;;;;;5052678;28;20283;-78
2021/06/02 10:01:57;;;;;;;7.95;2.88;;;34.40;95.70;;;;;;5052876;28;20188;-77
2021/06/02 10:04:35;;;;;;;2.50;2.30;;;34.10;95.60;;;;;;5053110;28;20638;-76
2021/06/02 10:07:05;;;;;;;4.18;2.63;;;33.90;94.60;;;;;;5052065;28;20208;-76
2021/06/02 10:09:32;;;;;;;2.97;2.70;;;33.70;94.10;;;;;;5051994;28;20220;-76
2021/06/02 10:12:01;;;;;;;6.25;2.63;;;34.30;94.50;;;;;;5052839;28;20277;-77
2021/06/02 10:14:28;;;;;;;3.20;2.92;;;34.10;95.30;;;;;;5052784;28;20211;-78
2021/06/02 10:16:54;;;;;;;4.07;2.83;;;33.50;95.80;;;;;;5051924;28;20224;-76
2021/06/02 10:19:39;;;;;;;3.67;2.80;;;32.90;95.10;;;;;;5052815;28;20196;-77
2021/06/02 10:22:22;;;;;;;4.78;2.90;;;32.20;95.80;;;;;;5052952;28;20195;-79
2021/06/02 10:24:49;;;;;;;3.20;2.83;;;32.00;96.30;;;;;;5053126;28;20260;-79
2021/06/02 10:27:17;;;;;;;3.13;2.83;;;31.90;96.00;;;;;;5052884;28;20630;-78
2021/06/02 10:29:43;;;;;;;2.60;2.40;;;32.80;97.30;;;;;;5052621;28;20203;-77
2021/06/02 10:32:10;;;;;;;4.63;2.78;;;32.40;96.20;;;;;;5051954;28;20295;-79
2021/06/02 10:34:36;;;;;;;4.82;2.60;;;32.70;95.80;;;;;;5052960;28;20602;-78
2021/06/02 10:37:04;;;;;;;3.10;2.60;;;32.50;97.10;;;;;;5050081;28;20740;-76
2021/06/02 10:39:33;;;;;;;4.15;2.88;;;33.10;96.80;;;;;;5040999;28;20196;-77
2021/06/02 10:42:03;;;;;;;3.60;2.40;;;33.00;96.50;;;;;;5052341;28;20634;-78
2021/06/02 10:44:34;;;;;;;3.03;2.10;;;33.50;96.90;;;;;;5053089;28;20215;-77
2021/06/02 10:47:02;;;;;;;3.17;2.30;;;33.30;94.90;;;;;;5053030;28;20196;-77
2021/06/02 10:49:33;;;;;;;5.35;2.40;;;32.80;95.80;;;;;;5052279;28;20216;-77
2021/06/02 10:51:59;;;;;;;2.95;2.20;;;33.50;96.20;;;;;;5052505;28;20223;-76
2021/06/02 10:54:37;;;;;;;4.32;2.47;;;33.50;94.70;;;;;;5052477;28;20193;-79
2021/06/02 10:57:12;;;;;;;6.00;2.58;;;33.50;95.20;;;;;;5052016;28;20200;-77
2021/06/02 10:59:39;;;;;;;7.40;2.50;;;33.10;94.70;;;;;;5051247;28;20541;-76
2021/06/02 11:02:08;;;;;;;2.88;2.20;;;32.90;94.60;;;;;;5051032;28;20632;-77
2021/06/02 11:04:36;;;;;;;4.22;2.70;;;33.40;94.30;;;;;;5049391;28;20223;-76
2021/06/02 11:07:20;;;;;;;6.07;2.30;;;33.70;94.00;;;;;;5047792;28;20197;-76
2021/06/02 11:09:58;;;;;;;4.18;2.50;;;33.70;95.60;;;;;;5046534;28;20577;-76
2021/06/02 11:12:26;;;;;;;3.70;2.22;;;34.00;93.70;;;;;;5044522;28;20653;-78
2021/06/02 11:14:53;;;;;;;3.60;2.30;;;34.10;92.90;;;;;;5045585;28;20205;-76
2021/06/02 11:17:21;;;;;;;2.72;2.20;;;33.80;93.40;;;;;;5051285;28;20315;-76
2021/06/02 11:19:56;;;;;;;7.20;2.45;;;33.80;93.90;;;;;;5050651;28;20180;-76
2021/06/02 11:22:25;;;;;;;2.30;2.10;;;33.50;93.50;;;;;;5047511;28;20192;-76
2021/06/02 11:24:54;;;;;;;4.65;2.40;;;33.40;93.40;;;;;;5055213;28;20254;-77
2021/06/02 11:27:38;;;;;;;6.13;2.17;;;33.30;93.60;;;;;;5041501;28;20231;-78
2021/06/02 11:30:23;;;;;;;3.85;2.58;;;33.80;93.20;;;;;;5052875;28;20705;-78
2021/06/02 11:33:07;;;;;;;3.55;2.42;;;33.70;94.20;;;;;;5055086;28;20274;-78
2021/06/02 11:36:12;;;;;;;4.60;2.22;;;34.40;93.10;;;;;;5052717;28;20270;-76
2021/06/02 11:38:41;;;;;;;6.15;2.30;;;35.20;93.40;;;;;;5054225;28;20212;-78
2021/06/02 11:41:08;;;;;;;5.20;2.30;;;34.30;95.10;;;;;;5056186;28;20717;-77
2021/06/02 11:43:36;;;;;;;5.15;2.47;;;34.20;94.70;;;;;;5055300;28;20271;-77
2021/06/02 11:46:04;;;;;;;5.97;2.50;;;34.10;95.70;;;;;;5056356;28;20273;-78
2021/06/02 11:48:34;;;;;;;3.63;2.28;;;34.30;94.30;;;;;;5056686;28;20238;-79
2021/06/02 11:51:05;;;;;;;2.67;2.38;;;34.50;95.20;;;;;;5054604;28;20642;-77
2021/06/02 11:53:45;;;;;;;3.05;2.45;;;34.10;94.20;;;;;;5054788;28;20189;-77
2021/06/02 11:56:12;;;;;;;3.92;2.40;;;33.90;95.00;;;;;;5058252;28;20192;-78
2021/06/02 11:58:41;;;;;;;2.80;2.50;;;33.70;95.70;;;;;;5058989;28;20278;-78
2021/06/02 12:01:07;;;;;;;2.80;2.60;;;33.30;95.20;;;;;;5054270;28;20188;-76
2021/06/02 12:03:34;;;;;;;8.38;2.50;;;33.40;95.00;;;;;;5055690;28;20207;-77
2021/06/02 12:06:01;;;;;;;3.38;2.45;;;33.70;94.80;;;;;;5054232;28;20656;-77
2021/06/02 12:08:27;;;;;;;3.20;2.58;;;33.20;94.40;;;;;;5049934;28;20200;-80
2021/06/02 12:10:56;;;;;;;4.95;2.45;;;33.10;95.30;;;;;;5053855;28;20188;-77
2021/06/02 12:13:24;;;;;;;3.50;2.40;;;33.40;94.70;;;;;;5054401;28;20212;-77
2021/06/02 12:15:53;;;;;;;5.43;2.58;;;33.10;94.60;;;;;;5054600;28;20239;-77
2021/06/02 12:18:34;;;;;;;2.28;2.00;;;33.50;94.80;;;;;;5053376;28;20212;-78
2021/06/02 12:21:14;;;;;;;3.10;2.50;;;33.70;95.20;;;;;;5053776;28;20188;-76
2021/06/02 12:23:54;;;;;;;4.03;2.30;;;34.10;93.80;;;;;;5053078;28;20283;-78
2021/06/02 12:26:23;;;;;;;3.88;2.22;;;33.50;94.50;;;;;;5053762;28;20222;-77
2021/06/02 12:28:50;;;;;;;3.88;2.33;;;33.80;95.10;;;;;;5053557;28;20280;-80
2021/06/02 12:31:37;;;;;;;2.42;2.20;;;34.40;95.70;;;;;;5053878;28;20278;-79
2021/06/02 12:34:06;;;;;;;5.80;2.20;;;34.60;93.70;;;;;;5052319;28;20611;-78
2021/06/02 12:36:33;;;;;;;5.30;2.50;;;35.20;93.40;;;;;;5052100;28;20196;-76
2021/06/02 12:39:08;;;;;;;5.05;2.22;;;34.90;94.20;;;;;;5049994;28;20383;-75
2021/06/02 12:41:34;;;;;;;4.15;2.25;;;34.80;93.50;;;;;;5052583;28;20210;-77
2021/06/02 12:44:02;;;;;;;6.22;2.20;;;34.30;94.10;;;;;;5052551;28;20192;-76
2021/06/02 12:46:29;;;;;;;4.28;2.45;;;33.60;94.60;;;;;;5050193;28;20196;-77
2021/06/02 12:48:57;;;;;;;6.53;2.40;;;33.20;95.90;;;;;;5052554;28;20200;-77
2021/06/02 12:51:27;;;;;;;3.25;2.38;;;33.10;95.20;;;;;;5052443;28;20282;-77
2021/06/02 12:53:53;;;;;;;4.10;2.25;;;33.20;95.20;;;;;;5048167;28;20188;-75
2021/06/02 12:56:21;;;;;;;3.60;2.33;;;33.50;96.10;;;;;;5052379;28;20284;-76
2021/06/02 12:58:53;;;;;;;7.85;2.47;;;33.50;95.00;;;;;;5051415;28;20244;-77
2021/06/02 13:01:20;;;;;;;2.85;2.55;;;33.30;95.30;;;;;;5053327;28;20196;-75
2021/06/02 13:03:49;;;;;;;3.05;2.40;;;33.80;95.50;;;;;;5053361;28;20208;-76
2021/06/02 13:06:18;;;;;;;7.00;2.30;;;34.20;95.80;;;;;;5046854;28;20299;-75
2021/06/02 13:08:45;;;;;;;3.65;2.33;;;34.40;95.80;;;;;;5049936;28;20188;-77
2021/06/02 13:11:13;;;;;;;2.65;2.42;;;34.10;94.20;;;;;;5053704;28;20227;-76
2021/06/02 13:13:40;;;;;;;3.05;2.47;;;33.90;94.40;;;;;;5053602;28;20283;-77
2021/06/02 13:16:09;;;;;;;2.55;2.20;;;34.00;94.10;;;;;;5053228;28;20191;-75
2021/06/02 13:18:35;;;;;;;3.30;2.20;;;34.00;95.70;;;;;;5053377;28;20589;-78
2021/06/02 13:21:12;;;;;;;4.13;2.72;;;34.40;97.20;;;;;;5052540;28;20192;-76